createdAt,value
2017-09-06T00:00:39.957Z,17.80
2017-09-06T00:03:07.429Z,17.60
2017-09-06T00:05:34.921Z,17.40
2017-09-06T00:08:02.410Z,17.50
2017-09-06T00:10:29.885Z,17.60
2017-09-06T00:12:57.378Z,17.70
2017-09-06T00:15:25.097Z,17.80
2017-09-06T00:17:52.569Z,17.90
2017-09-06T00:20:20.065Z,18.00
2017-09-06T00:22:48.309Z,17.90
2017-09-06T00:25:15.784Z,17.90
2017-09-06T00:27:43.278Z,17.90
2017-09-06T00:30:11.066Z,17.90
2017-09-06T00:32:38.537Z,18.00
2017-09-06T00:35:06.033Z,18.00
2017-09-06T00:37:33.510Z,18.00
2017-09-06T00:40:01.053Z,18.10
2017-09-06T00:42:28.546Z,18.10
2017-09-06T00:44:56.022Z,18.10
2017-09-06T00:47:23.494Z,18.00
2017-09-06T00:49:50.985Z,17.90
2017-09-06T00:52:18.456Z,17.70
2017-09-06T00:54:45.925Z,17.60
2017-09-06T00:57:13.417Z,17.50
2017-09-06T00:59:40.889Z,17.40
2017-09-06T01:02:08.357Z,17.40
2017-09-06T01:04:35.857Z,17.50
2017-09-06T01:07:03.337Z,17.50
2017-09-06T01:09:30.812Z,17.50
2017-09-06T01:11:58.309Z,17.60
2017-09-06T01:14:25.780Z,17.60
2017-09-06T01:16:54.672Z,17.60
2017-09-06T01:19:22.294Z,17.50
2017-09-06T01:21:49.776Z,17.60
2017-09-06T01:24:17.247Z,17.60
2017-09-06T01:26:44.749Z,17.60
2017-09-06T01:29:12.220Z,17.70
2017-09-06T01:31:39.689Z,17.70
2017-09-06T01:34:07.957Z,17.70
2017-09-06T01:36:35.434Z,17.70
2017-09-06T01:39:03.681Z,17.80
2017-09-06T01:41:31.185Z,17.70
2017-09-06T01:43:58.656Z,17.80
2017-09-06T01:46:26.126Z,17.80
2017-09-06T01:48:53.628Z,17.70
2017-09-06T01:51:21.097Z,17.80
2017-09-06T01:53:48.565Z,17.70
2017-09-06T01:56:16.062Z,17.70
2017-09-06T01:58:43.537Z,17.70
2017-09-06T02:01:11.017Z,17.70
2017-09-06T02:03:38.510Z,17.70
2017-09-06T02:06:05.984Z,17.80
2017-09-06T02:08:33.457Z,17.80
2017-09-06T02:11:00.954Z,17.80
2017-09-06T02:13:28.764Z,17.80
2017-09-06T02:15:56.233Z,17.80
2017-09-06T02:18:23.725Z,17.80
2017-09-06T02:20:51.962Z,17.80
2017-09-06T02:23:19.433Z,17.80
2017-09-06T02:25:46.929Z,17.70
2017-09-06T02:28:14.402Z,17.60
2017-09-06T02:30:41.873Z,17.60
2017-09-06T02:33:09.495Z,17.60
2017-09-06T02:35:36.986Z,17.60
2017-09-06T02:38:04.461Z,17.50
2017-09-06T02:40:31.963Z,17.50
2017-09-06T02:42:59.441Z,17.50
2017-09-06T02:45:26.914Z,17.50
2017-09-06T02:47:54.406Z,17.60
2017-09-06T02:50:21.881Z,17.60
2017-09-06T02:52:50.121Z,17.60
2017-09-06T02:55:18.389Z,17.60
2017-09-06T02:57:45.856Z,17.60
2017-09-06T03:00:13.333Z,17.60
2017-09-06T03:02:40.833Z,17.60
2017-09-06T03:05:08.553Z,17.60
2017-09-06T03:07:36.021Z,17.60
2017-09-06T03:10:04.285Z,17.50
2017-09-06T03:12:31.757Z,17.60
2017-09-06T03:14:59.224Z,17.60
2017-09-06T03:17:26.716Z,17.60
2017-09-06T03:19:54.480Z,17.60
2017-09-06T03:22:21.949Z,17.60
2017-09-06T03:24:49.441Z,17.60
2017-09-06T03:27:16.911Z,17.60
2017-09-06T03:29:44.380Z,17.50
2017-09-06T03:32:11.881Z,17.50
2017-09-06T03:34:39.369Z,17.50
2017-09-06T03:37:06.838Z,17.50
2017-09-06T03:39:34.331Z,17.50
2017-09-06T03:42:01.829Z,17.50
2017-09-06T03:44:29.301Z,17.60
2017-09-06T03:46:56.792Z,17.60
2017-09-06T03:49:24.269Z,17.60
2017-09-06T03:51:51.741Z,17.60
2017-09-06T03:54:19.233Z,17.60
2017-09-06T03:56:47.472Z,17.70
2017-09-06T03:59:14.949Z,17.70
2017-09-06T04:01:42.831Z,17.60
2017-09-06T04:04:10.853Z,17.70
2017-09-06T04:06:38.322Z,17.60
2017-09-06T04:09:05.826Z,17.50
2017-09-06T04:11:33.297Z,17.50
2017-09-06T04:14:00.771Z,17.50
2017-09-06T04:16:28.261Z,17.60
2017-09-06T04:18:55.731Z,17.60
2017-09-06T04:21:23.201Z,17.70
2017-09-06T04:23:50.693Z,17.60
2017-09-06T04:26:18.161Z,17.60
2017-09-06T04:28:45.633Z,17.60
2017-09-06T04:31:13.129Z,17.60
2017-09-06T04:33:41.463Z,17.60
2017-09-06T04:36:08.933Z,17.60
2017-09-06T04:38:36.420Z,17.60
2017-09-06T04:41:03.896Z,17.60
2017-09-06T04:43:31.368Z,17.60
2017-09-06T04:45:58.865Z,17.60
2017-09-06T04:48:26.333Z,17.60
2017-09-06T04:50:53.808Z,17.60
2017-09-06T04:53:21.313Z,17.60
2017-09-06T04:55:48.793Z,17.50
2017-09-06T04:58:16.266Z,17.50
2017-09-06T05:00:43.757Z,17.50
2017-09-06T05:03:11.550Z,17.50
2017-09-06T05:05:39.035Z,17.50
2017-09-06T05:08:06.545Z,17.50
2017-09-06T05:10:34.017Z,17.40
2017-09-06T05:13:01.490Z,17.40
2017-09-06T05:15:28.985Z,17.40
2017-09-06T05:17:56.457Z,17.30
2017-09-06T05:20:24.693Z,17.40
2017-09-06T05:22:52.185Z,17.40
2017-09-06T05:25:19.657Z,17.40
2017-09-06T05:27:47.130Z,17.40
2017-09-06T05:30:14.629Z,17.40
2017-09-06T05:32:42.098Z,17.40
2017-09-06T05:35:09.570Z,17.40
2017-09-06T05:37:37.841Z,17.50
2017-09-06T05:40:05.318Z,17.50
2017-09-06T05:42:32.794Z,17.40
2017-09-06T05:45:00.294Z,17.40
2017-09-06T05:47:27.766Z,17.40
2017-09-06T05:49:55.237Z,17.50
2017-09-06T05:52:22.733Z,17.50
2017-09-06T05:54:50.205Z,17.50
2017-09-06T05:57:17.682Z,17.50
2017-09-06T05:59:45.173Z,17.50
2017-09-06T06:02:12.650Z,17.60
2017-09-06T06:04:40.122Z,17.60
2017-09-06T06:07:07.618Z,17.60
2017-09-06T06:09:35.333Z,17.60
2017-09-06T06:12:02.808Z,17.60
2017-09-06T06:14:30.302Z,17.80
2017-09-06T06:16:57.777Z,18.10
2017-09-06T06:19:25.252Z,18.30
2017-09-06T06:21:52.766Z,18.50
2017-09-06T06:24:20.481Z,18.70
2017-09-06T06:26:47.953Z,18.80
2017-09-06T06:29:16.214Z,18.50
2017-09-06T06:31:43.689Z,18.50
2017-09-06T06:34:11.161Z,18.40
2017-09-06T06:36:38.665Z,18.30
2017-09-06T06:39:06.137Z,18.20
2017-09-06T06:41:33.609Z,18.10
2017-09-06T06:44:01.101Z,18.00
2017-09-06T06:46:28.574Z,18.00
2017-09-06T06:48:56.810Z,18.30
2017-09-06T06:51:24.306Z,18.20
2017-09-06T06:53:51.786Z,18.20
2017-09-06T06:56:19.269Z,18.40
2017-09-06T06:58:46.788Z,18.80
2017-09-06T07:01:14.270Z,18.70
2017-09-06T07:03:41.745Z,18.80
2017-09-06T07:06:09.245Z,18.70
2017-09-06T07:08:36.718Z,18.70
2017-09-06T07:11:04.190Z,18.70
2017-09-06T07:13:31.681Z,18.60
2017-09-06T07:15:59.153Z,18.50
2017-09-06T07:18:27.642Z,18.50
2017-09-06T07:20:55.137Z,18.60
2017-09-06T07:23:22.617Z,18.50
2017-09-06T07:25:50.086Z,18.40
2017-09-06T07:28:17.590Z,18.40
2017-09-06T07:30:45.069Z,18.20
2017-09-06T07:33:12.544Z,18.40
2017-09-06T07:35:40.037Z,18.70
2017-09-06T07:38:07.508Z,19.20
2017-09-06T07:40:34.977Z,19.60
2017-09-06T07:43:02.489Z,19.70
2017-09-06T07:45:29.965Z,20.00
2017-09-06T07:47:57.437Z,20.50
2017-09-06T07:50:24.954Z,20.80
2017-09-06T07:52:52.425Z,21.00
2017-09-06T07:55:19.894Z,21.30
2017-09-06T07:57:47.398Z,21.30
2017-09-06T08:00:14.877Z,21.00
2017-09-06T08:02:42.357Z,21.10
2017-09-06T08:05:09.877Z,21.40
2017-09-06T08:07:37.357Z,21.60
2017-09-06T08:10:05.115Z,21.60
2017-09-06T08:12:32.618Z,21.40
2017-09-06T08:15:00.089Z,21.20
2017-09-06T08:17:27.561Z,21.00
2017-09-06T08:19:55.060Z,20.90
2017-09-06T08:22:22.529Z,20.90
2017-09-06T08:24:50.002Z,21.20
2017-09-06T08:27:17.498Z,21.30
2017-09-06T08:29:44.985Z,21.40
2017-09-06T08:32:12.671Z,21.80
2017-09-06T08:34:40.164Z,22.10
2017-09-06T08:37:07.637Z,22.10
2017-09-06T08:39:35.114Z,21.90
2017-09-06T08:42:02.610Z,22.20
2017-09-06T08:44:30.110Z,21.70
2017-09-06T08:46:57.581Z,21.60
2017-09-06T08:49:25.069Z,21.90
2017-09-06T08:51:52.541Z,22.00
2017-09-06T08:54:20.777Z,22.40
2017-09-06T08:56:48.271Z,22.40
2017-09-06T08:59:15.745Z,21.90
2017-09-06T09:01:43.221Z,21.70
2017-09-06T09:04:10.722Z,21.70
2017-09-06T09:06:38.461Z,21.50
2017-09-06T09:09:05.942Z,21.30
2017-09-06T09:11:33.437Z,21.10
2017-09-06T09:14:00.909Z,21.10
2017-09-06T09:16:28.382Z,21.20
2017-09-06T09:18:55.878Z,21.20
2017-09-06T09:21:23.350Z,21.30
2017-09-06T09:23:50.821Z,21.40
2017-09-06T09:26:18.313Z,21.30
2017-09-06T09:28:45.795Z,21.60
2017-09-06T09:31:13.299Z,21.80
2017-09-06T09:33:41.545Z,21.60
2017-09-06T09:36:09.019Z,21.60
2017-09-06T09:38:36.494Z,21.50
2017-09-06T09:41:03.985Z,21.60
2017-09-06T09:43:31.474Z,21.50
2017-09-06T09:45:58.946Z,21.50
2017-09-06T09:48:27.206Z,22.00
2017-09-06T09:50:54.677Z,22.00
2017-09-06T09:53:22.914Z,22.90
2017-09-06T09:55:50.409Z,22.90
2017-09-06T09:58:17.882Z,23.30
2017-09-06T10:00:45.402Z,23.80
2017-09-06T10:03:12.900Z,24.00
2017-09-06T10:05:40.383Z,24.20
2017-09-06T10:08:07.861Z,24.10
2017-09-06T10:10:35.357Z,24.10
2017-09-06T10:13:02.830Z,24.00
2017-09-06T10:15:30.301Z,23.80
2017-09-06T10:17:57.793Z,23.30
2017-09-06T10:20:25.265Z,23.10
2017-09-06T10:22:52.733Z,22.80
2017-09-06T10:25:20.225Z,22.60
2017-09-06T10:27:47.698Z,22.50
2017-09-06T10:30:15.174Z,22.40
2017-09-06T10:32:42.666Z,22.30
2017-09-06T10:35:10.905Z,21.40
2017-09-06T10:37:38.377Z,21.40
2017-09-06T10:40:05.874Z,21.60
2017-09-06T10:42:33.346Z,21.80
2017-09-06T10:45:00.821Z,22.20
2017-09-06T10:47:28.329Z,22.60
2017-09-06T10:49:56.565Z,22.80
2017-09-06T10:52:24.042Z,22.80
2017-09-06T10:54:51.538Z,23.20
2017-09-06T10:57:19.011Z,23.70
2017-09-06T10:59:46.481Z,23.90
2017-09-06T11:02:14.743Z,24.10
2017-09-06T11:04:42.222Z,24.00
2017-09-06T11:07:09.693Z,23.70
2017-09-06T11:09:37.193Z,23.60
2017-09-06T11:12:04.693Z,23.00
2017-09-06T11:14:32.169Z,22.50
2017-09-06T11:16:59.665Z,22.10
2017-09-06T11:19:27.248Z,22.80
2017-09-06T11:21:54.728Z,22.70
2017-09-06T11:24:22.229Z,22.80
2017-09-06T11:26:49.705Z,23.10
2017-09-06T11:29:17.174Z,23.40
2017-09-06T11:31:44.665Z,23.80
2017-09-06T11:34:12.139Z,23.50
2017-09-06T11:36:39.618Z,24.00
2017-09-06T11:39:07.879Z,23.80
2017-09-06T11:41:35.349Z,23.70
2017-09-06T11:44:03.590Z,21.80
2017-09-06T11:46:31.081Z,21.70
2017-09-06T11:48:58.553Z,21.00
2017-09-06T11:51:26.026Z,20.90
2017-09-06T11:53:53.524Z,20.90
2017-09-06T11:56:21.001Z,20.70
2017-09-06T11:58:48.473Z,20.50
2017-09-06T12:01:15.961Z,20.20
2017-09-06T12:03:43.438Z,20.10
2017-09-06T12:06:10.911Z,20.00
2017-09-06T12:08:38.405Z,19.70
2017-09-06T12:11:05.878Z,19.70
2017-09-06T12:13:33.354Z,19.90
2017-09-06T12:16:00.845Z,20.10
2017-09-06T12:18:28.318Z,20.10
2017-09-06T12:20:55.788Z,19.90
2017-09-06T12:23:23.281Z,20.20
2017-09-06T12:25:50.749Z,20.20
2017-09-06T12:28:18.225Z,20.20
2017-09-06T12:30:45.749Z,20.60
2017-09-06T12:33:13.225Z,20.70
2017-09-06T12:35:40.698Z,20.90
2017-09-06T12:38:08.233Z,21.10
2017-09-06T12:40:35.714Z,21.40
2017-09-06T12:43:03.189Z,21.40
2017-09-06T12:45:31.446Z,21.70
2017-09-06T12:47:58.917Z,21.70
2017-09-06T12:50:26.390Z,21.40
2017-09-06T12:52:54.649Z,22.20
2017-09-06T12:55:22.125Z,22.10
2017-09-06T12:57:49.602Z,22.10
2017-09-06T13:00:17.114Z,21.70
2017-09-06T13:02:44.585Z,21.50
2017-09-06T13:05:12.057Z,21.10
2017-09-06T13:07:40.317Z,21.10
2017-09-06T13:10:07.792Z,21.00
2017-09-06T13:12:35.581Z,21.10
2017-09-06T13:15:03.077Z,21.20
2017-09-06T13:17:30.553Z,21.50
2017-09-06T13:19:58.026Z,21.60
2017-09-06T13:22:25.523Z,22.30
2017-09-06T13:24:53.004Z,22.40
2017-09-06T13:27:20.478Z,22.50
2017-09-06T13:29:47.977Z,22.50
2017-09-06T13:32:15.455Z,22.40
2017-09-06T13:34:42.929Z,22.40
2017-09-06T13:37:10.422Z,22.20
2017-09-06T13:39:37.893Z,22.40
2017-09-06T13:42:05.373Z,22.40
2017-09-06T13:44:32.866Z,22.10
2017-09-06T13:47:00.341Z,22.10
2017-09-06T13:49:27.817Z,21.90
2017-09-06T13:51:55.314Z,21.60
2017-09-06T14:07:23.037Z,21.30
2017-09-06T14:09:50.512Z,21.30
2017-09-06T14:12:17.985Z,21.30
2017-09-06T14:14:45.477Z,21.10
2017-09-06T14:17:12.953Z,20.80
2017-09-06T14:19:40.429Z,20.70
2017-09-06T14:22:07.922Z,20.80
2017-09-06T14:24:35.650Z,20.80
2017-09-06T14:27:03.121Z,21.00
2017-09-06T14:29:30.797Z,21.20
2017-09-06T14:31:58.272Z,21.20
2017-09-06T14:34:25.742Z,21.20
2017-09-06T14:36:53.233Z,21.20
2017-09-06T14:39:20.705Z,21.10
2017-09-06T14:41:48.178Z,20.90
2017-09-06T14:44:15.677Z,20.80
2017-09-06T14:46:43.158Z,20.80
2017-09-06T14:49:10.638Z,20.70
2017-09-06T14:51:38.138Z,20.80
2017-09-06T14:54:05.614Z,20.80
2017-09-06T14:56:33.085Z,20.70
2017-09-06T14:59:00.583Z,20.60
2017-09-06T15:01:28.057Z,20.50
2017-09-06T15:03:55.773Z,20.60
2017-09-06T15:06:23.269Z,20.60
2017-09-06T15:08:50.745Z,20.60
2017-09-06T15:11:18.981Z,20.70
2017-09-06T15:13:47.245Z,20.70
2017-09-06T15:16:14.783Z,20.60
2017-09-06T15:18:42.261Z,20.60
2017-09-06T15:21:09.753Z,20.70
2017-09-06T15:23:37.269Z,20.70
2017-09-06T15:26:05.033Z,20.70
2017-09-06T15:28:32.802Z,20.60
2017-09-06T15:31:00.277Z,20.60
2017-09-06T15:33:27.745Z,20.50
2017-09-06T15:35:55.240Z,20.50
2017-09-06T15:38:22.715Z,20.40
2017-09-06T15:40:50.185Z,20.20
2017-09-06T15:43:17.681Z,20.00
2017-09-06T15:45:45.933Z,19.90
2017-09-06T15:48:13.405Z,19.90
2017-09-06T15:50:40.898Z,19.80
2017-09-06T15:53:09.145Z,19.80
2017-09-06T15:55:36.626Z,19.80
2017-09-06T15:58:04.121Z,19.70
2017-09-06T16:00:31.597Z,19.60
2017-09-06T16:02:59.069Z,19.50
2017-09-06T16:05:26.566Z,19.50
2017-09-06T16:07:54.042Z,19.40
2017-09-06T16:10:21.516Z,19.30
2017-09-06T16:12:49.012Z,19.20
2017-09-06T16:15:16.493Z,19.20
2017-09-06T16:17:43.965Z,19.10
2017-09-06T16:20:12.053Z,19.00
2017-09-06T16:22:39.533Z,18.90
2017-09-06T16:25:07.366Z,18.80
2017-09-06T16:27:34.857Z,18.80
2017-09-06T16:30:02.330Z,18.70
2017-09-06T16:32:29.801Z,18.70
2017-09-06T16:34:57.297Z,18.70
2017-09-06T16:37:24.785Z,18.60
2017-09-06T16:39:52.261Z,18.60
2017-09-06T16:42:19.765Z,18.60
2017-09-06T16:44:47.241Z,18.60
2017-09-06T16:47:14.720Z,18.60
2017-09-06T16:49:42.217Z,18.60
2017-09-06T16:52:09.697Z,18.60
2017-09-06T16:54:37.181Z,18.60
2017-09-06T16:57:04.917Z,18.60
2017-09-06T16:59:32.407Z,18.60
2017-09-06T17:02:00.076Z,18.60
2017-09-06T17:04:27.613Z,18.60
2017-09-06T17:06:55.316Z,18.60
2017-09-06T17:09:46.162Z,18.60
2017-09-06T17:12:13.650Z,18.40
2017-09-06T17:14:41.121Z,18.30
2017-09-06T17:17:08.637Z,18.20
2017-09-06T17:19:36.166Z,18.10
2017-09-06T17:22:03.642Z,18.10
2017-09-06T17:24:31.135Z,18.00
2017-09-06T17:26:58.614Z,17.90
2017-09-06T17:29:26.114Z,17.90
2017-09-06T17:31:53.676Z,17.90
2017-09-06T17:34:21.166Z,17.80
2017-09-06T17:36:48.645Z,17.70
2017-09-06T17:39:16.137Z,17.70
2017-09-06T17:41:43.627Z,17.60
2017-09-06T17:44:11.101Z,17.50
2017-09-06T17:46:38.596Z,17.50
2017-09-06T17:49:06.075Z,17.50
2017-09-06T17:51:33.549Z,17.50
2017-09-06T17:54:01.051Z,17.40
2017-09-06T17:56:28.574Z,17.40
2017-09-06T17:58:56.045Z,17.30
2017-09-06T18:01:23.541Z,17.30
2017-09-06T18:03:51.781Z,17.20
2017-09-06T18:06:19.259Z,17.20
2017-09-06T18:08:46.765Z,17.20
2017-09-06T18:11:14.525Z,17.20
2017-09-06T18:13:42.010Z,17.10
2017-09-06T18:16:09.506Z,17.10
2017-09-06T18:18:37.750Z,17.00
2017-09-06T18:21:05.477Z,16.90
2017-09-06T18:23:33.032Z,16.90
2017-09-06T18:26:00.573Z,16.90
2017-09-06T18:28:28.082Z,16.90
2017-09-06T18:30:56.450Z,16.80
2017-09-06T18:33:23.998Z,16.80
2017-09-06T18:35:51.472Z,16.80
2017-09-06T18:38:19.285Z,16.70
2017-09-06T18:40:46.838Z,16.70
2017-09-06T18:43:14.322Z,16.70
2017-09-06T18:45:41.829Z,16.60
2017-09-06T18:48:09.309Z,16.70
2017-09-06T18:50:36.814Z,16.70
2017-09-06T18:53:04.314Z,16.60
2017-09-06T18:55:32.553Z,16.60
2017-09-06T18:58:00.029Z,16.60
2017-09-06T19:00:27.528Z,16.60
2017-09-06T19:02:54.997Z,16.60
2017-09-06T19:05:22.470Z,16.60
2017-09-06T19:07:50.730Z,16.70
2017-09-06T19:10:18.205Z,16.60
2017-09-06T19:12:45.682Z,16.70
2017-09-06T19:15:13.179Z,16.60
2017-09-06T19:17:41.416Z,16.60
2017-09-06T19:20:09.146Z,16.60
2017-09-06T19:22:36.645Z,16.60
2017-09-06T19:25:04.121Z,16.60
2017-09-06T19:27:32.357Z,16.70
2017-09-06T19:29:59.853Z,16.60
2017-09-06T19:32:28.089Z,16.60
2017-09-06T19:34:55.786Z,16.60
2017-09-06T19:37:23.279Z,16.60
2017-09-06T19:39:50.752Z,16.60
2017-09-06T19:42:18.226Z,16.50
2017-09-06T19:44:45.717Z,16.50
2017-09-06T19:47:13.189Z,16.50
2017-09-06T19:49:41.433Z,16.50
2017-09-06T19:52:08.942Z,16.50
2017-09-06T19:54:36.418Z,16.50
2017-09-06T19:57:03.894Z,16.50
2017-09-06T19:59:31.389Z,16.40
2017-09-06T20:01:59.183Z,16.40
2017-09-06T20:04:26.656Z,16.40
2017-09-06T20:06:54.146Z,16.40
2017-09-06T20:09:21.621Z,16.40
2017-09-06T20:11:49.856Z,16.40
2017-09-06T20:14:17.353Z,16.30
2017-09-06T20:16:44.879Z,16.30
2017-09-06T20:19:12.334Z,16.30
2017-09-06T20:21:41.333Z,16.30
2017-09-06T20:24:08.904Z,16.30
2017-09-06T20:26:36.465Z,16.30
2017-09-06T20:29:03.957Z,16.30
2017-09-06T20:31:31.499Z,16.30
2017-09-06T20:33:58.979Z,16.30
2017-09-06T20:36:26.472Z,16.20
2017-09-06T20:38:53.945Z,16.10
2017-09-06T20:41:21.425Z,16.00
2017-09-06T20:43:48.922Z,16.00
2017-09-06T20:46:16.402Z,16.00
2017-09-06T20:48:43.878Z,15.90
2017-09-06T20:51:11.370Z,15.90
2017-09-06T20:53:38.870Z,15.90
2017-09-06T20:56:06.351Z,15.90
2017-09-06T20:58:33.845Z,15.90
2017-09-06T21:01:01.318Z,15.90
2017-09-06T21:03:28.791Z,15.90
2017-09-06T21:05:56.281Z,15.90
2017-09-06T21:08:23.757Z,15.90
2017-09-06T21:10:51.229Z,16.00
2017-09-06T21:13:18.723Z,16.00
2017-09-06T21:15:46.466Z,16.00
2017-09-06T21:18:13.933Z,16.00
2017-09-06T21:20:41.425Z,16.00
2017-09-06T21:23:08.901Z,16.00
2017-09-06T21:25:36.389Z,16.00
2017-09-06T21:28:03.881Z,16.00
2017-09-06T21:30:31.613Z,16.00
2017-09-06T21:32:59.086Z,16.00
2017-09-06T21:35:27.099Z,16.00
2017-09-06T21:37:55.337Z,15.90
2017-09-06T21:40:22.805Z,15.90
2017-09-06T21:42:50.323Z,15.90
2017-09-06T21:45:17.802Z,15.90
2017-09-06T21:47:45.770Z,15.90
2017-09-06T21:50:13.261Z,15.80
2017-09-06T21:52:40.734Z,15.80
2017-09-06T21:55:08.205Z,15.80
2017-09-06T21:57:35.741Z,15.80
2017-09-06T22:00:03.986Z,15.80
2017-09-06T22:02:31.457Z,15.80
2017-09-06T22:04:59.029Z,15.80
2017-09-06T22:07:26.505Z,15.80
2017-09-06T22:09:54.744Z,15.50
2017-09-06T22:12:22.237Z,15.50
2017-09-06T22:14:49.714Z,15.40
2017-09-06T22:17:17.189Z,15.30
2017-09-06T22:19:44.681Z,15.00
2017-09-06T22:22:12.153Z,14.80
2017-09-06T22:24:39.857Z,14.70
2017-09-06T22:27:22.233Z,14.70
2017-09-06T22:29:49.708Z,14.60
2017-09-06T22:32:17.181Z,14.40
2017-09-06T22:34:44.678Z,14.40
2017-09-06T22:37:12.154Z,14.30
2017-09-06T22:39:39.629Z,14.30
2017-09-06T22:42:07.131Z,14.20
2017-09-06T22:44:34.815Z,14.20
2017-09-06T22:47:02.297Z,14.20
2017-09-06T22:49:30.553Z,14.20
2017-09-06T22:51:58.059Z,14.20
2017-09-06T22:54:25.566Z,14.20
2017-09-06T22:56:53.103Z,14.20
2017-09-06T22:59:20.577Z,14.20
2017-09-06T23:01:48.053Z,14.20
2017-09-06T23:04:15.557Z,14.20
2017-09-06T23:06:43.033Z,14.20
2017-09-06T23:09:10.505Z,14.10
2017-09-06T23:11:37.997Z,14.00
2017-09-06T23:14:05.534Z,14.00
2017-09-06T23:16:33.772Z,13.90
2017-09-06T23:19:01.265Z,13.90
2017-09-06T23:21:29.506Z,13.80
2017-09-06T23:23:56.977Z,13.80
2017-09-06T23:26:24.477Z,13.80
2017-09-06T23:28:52.016Z,13.80
2017-09-06T23:31:20.257Z,13.70
2017-09-06T23:33:47.753Z,13.60
2017-09-06T23:36:15.234Z,13.60
2017-09-06T23:38:42.705Z,13.60
2017-09-06T23:41:10.197Z,13.60
2017-09-06T23:43:37.682Z,13.60
2017-09-06T23:46:05.921Z,13.50
2017-09-06T23:48:33.568Z,13.50
2017-09-06T23:51:01.047Z,13.50
2017-09-06T23:53:28.519Z,13.40
2017-09-06T23:55:56.009Z,13.50
2017-09-06T23:58:23.482Z,13.40
